Wednesday, February 20, 2019, 2:49 PM EST
Back to Local

KFRG, Farmingdale Republic Airport

Location: Farmingdale, NY, United States Lat: 40.733
Local Time: 2:49 PM EST (19:49 GMT) Lon: -73.417
Time Zone: US/Eastern Elev: 82 ft

Show me the last for .
Show Decoded

2019-02-20 14:26 METAR KFRG 201926Z 08006KT 3/4SM -SN BR FEW007 BKN023 OVC028 M03/M05 A3049 RMK
                 AO2 SFC VIS 1 SNB04 P0000 T10331050 =
2019-02-20 13:53 METAR KFRG 201853Z 07005KT 3/4SM BR BKN029 OVC038 M03/M06 A3049 RMK AO2 SFC VIS
                 2 SNE43 SLP327 P0001 T10331056 =
2019-02-20 13:36 METAR KFRG 201836Z 10004KT 3/4SM -SN BR BKN019 OVC039 M03/M05 A3051 RMK AO2 SFC
                 VIS 1 1/2 P0001 T10331050 =
2019-02-20 13:19 METAR KFRG 201819Z 14004KT 1/2SM -SN FZFG VV011 M04/M06 A3053 RMK AO2 TWR VIS
                 3/4 P0001 T10391056 =
2019-02-20 13:12 METAR KFRG 201812Z 14003KT 1/4SM SN FZFG VV010 M04/M06 A3053 RMK AO2 TWR VIS 3/4
                 P0001 T10391056 =
2019-02-20 13:03 METAR KFRG 201803Z 16004KT 1/2SM SN FZFG VV012 M04/M06 A3055 RMK AO2 TWR VIS 3/4
                 P0000 T10391061 =
2019-02-20 12:53 METAR KFRG 201753Z 19007KT 1/2SM SN FZFG VV017 M04/M06 A3054 RMK AO2 TWR VIS 3/4
                 SNB31 SLP344 P0000 60000 T10391061 11022 21039 58013 =
2019-02-20 12:31 METAR KFRG 201731Z 17006KT 1 3/4SM -SN BKN028 OVC035 M03/M08 A3055 RMK AO2 SFC
                 VIS 4 SNB31 P0000 T10281083 =
2019-02-20 12:29 METAR KFRG 201729Z 17007KT 3SM HZ BKN030 OVC037 M03/M08 A3055 RMK AO2 SFC VIS 5
                 T10281083 =
2019-02-20 11:53 METAR KFRG 201653Z 19004KT 10SM OVC055 M02/M11 A3057 RMK AO2 SLP353 T10221106 =
2019-02-20 10:53 METAR KFRG 201553Z 00000KT 10SM BKN070 OVC085 M02/M11 A3060 RMK AO2 SLP362
                 T10221106 =
2019-02-20 09:53 METAR KFRG 201453Z 05007KT 10SM OVC110 M03/M11 A3058 RMK AO2 SLP357 T10281106
                 58001 =
2019-02-20 08:53 METAR KFRG 201353Z 05005KT 10SM CLR M03/M11 A3062 RMK AO2 PRESRR SLP370
                 T10281106 =
2019-02-20 07:53 METAR KFRG 201253Z AUTO 05006KT 10SM CLR M03/M11 A3062 RMK AO2 SLP368 T10331111
                 =
2019-02-20 06:53 METAR KFRG 201153Z AUTO 06004KT 10SM CLR M04/M11 A3059 RMK AO2 SLP358 T10391111
                 11028 21044 58005 =
2019-02-20 05:53 METAR KFRG 201053Z AUTO 03004KT 10SM CLR M04/M12 A3059 RMK AO2 SLP359 T10391122
                 =
2019-02-20 04:53 METAR KFRG 200953Z AUTO 04004KT 10SM CLR M04/M12 A3061 RMK AO2 SLP366 T10391122
                 =
2019-02-20 03:53 METAR KFRG 200853Z AUTO 04004KT 10SM CLR M04/M12 A3060 RMK AO2 SLP363 T10391122
                 50004 =
2019-02-20 02:53 METAR KFRG 200753Z AUTO 03004KT 10SM CLR M03/M12 A3061 RMK AO2 SLP365 T10331122
                 =
2019-02-20 01:53 METAR KFRG 200653Z AUTO 00000KT 10SM CLR M03/M13 A3059 RMK AO2 SLP360 T10281128
                 =
2019-02-20 00:53 METAR KFRG 200553Z AUTO 03005KT 10SM CLR M03/M12 A3059 RMK AO2 SLP359 T10281117
                 11006 21028 55001 =
2019-02-19 23:53 METAR KFRG 200453Z AUTO 05004KT 10SM CLR M02/M12 A3058 RMK AO2 SLP356 T10221122
                 400111056 =
2019-02-19 22:53 METAR KFRG 200353Z 33007KT 10SM CLR M01/M14 A3059 RMK AO2 SLP359 T10111139 =
2019-02-19 21:53 METAR KFRG 200253Z 30004KT 10SM CLR M01/M14 A3059 RMK AO2 SLP360 T10111139 51007
                 =
2019-02-19 20:53 METAR KFRG 200153Z 33005KT 10SM CLR M01/M14 A3059 RMK AO2 SLP359 T10061139 =
2019-02-19 19:53 METAR KFRG 200053Z 32004KT 10SM CLR M01/M13 A3059 RMK AO2 SLP357 T10061133 =
2019-02-19 18:53 METAR KFRG 192353Z 29006KT 10SM CLR M01/M14 A3057 RMK AO2 SLP354 T10061139 10011
                 21006 53013 =
2019-02-19 17:53 METAR KFRG 192253Z 30004KT 10SM CLR 00/M14 A3054 RMK AO2 SLP342 T00001139 =
2019-02-19 16:53 METAR KFRG 192153Z VRB05KT 10SM CLR 00/M14 A3053 RMK AO2 SLP337 T00001139 =
2019-02-19 15:53 METAR KFRG 192053Z 29007KT 10SM CLR 01/M14 A3054 RMK AO2 SLP340 T00061139 55005
                 =
2019-02-19 14:53 METAR KFRG 191953Z 31007KT 10SM CLR 01/M13 A3053 RMK AO2 SLP339 T00061128 =

Support USWX by starting your Amazon purchase here.